sensor_id;sensor_type;location;lat;lon;timestamp;P1;durP1;ratioP1;P2;durP2;ratioP2
8654;SDS011;13500;52.514;13.462;2023-03-23T00:02:20;22.30;;;7.63;;
8654;SDS011;13500;52.514;13.462;2023-03-23T00:04:49;7.30;;;2.77;;
8654;SDS011;13500;52.514;13.462;2023-03-23T00:07:16;18.30;;;6.37;;
8654;SDS011;13500;52.514;13.462;2023-03-23T00:09:48;7.30;;;3.67;;
8654;SDS011;13500;52.514;13.462;2023-03-23T00:12:19;10.10;;;3.80;;
8654;SDS011;13500;52.514;13.462;2023-03-23T00:14:47;7.30;;;3.23;;
8654;SDS011;13500;52.514;13.462;2023-03-23T00:17:14;5.87;;;3.37;;
8654;SDS011;13500;52.514;13.462;2023-03-23T00:19:40;6.93;;;3.47;;
8654;SDS011;13500;52.514;13.462;2023-03-23T00:22:12;5.07;;;3.30;;
8654;SDS011;13500;52.514;13.462;2023-03-23T00:24:40;4.10;;;2.97;;
8654;SDS011;13500;52.514;13.462;2023-03-23T00:27:09;8.50;;;4.50;;
8654;SDS011;13500;52.514;13.462;2023-03-23T00:29:37;4.60;;;2.77;;
8654;SDS011;13500;52.514;13.462;2023-03-23T00:32:05;6.17;;;3.67;;
8654;SDS011;13500;52.514;13.462;2023-03-23T00:34:32;5.50;;;3.07;;
8654;SDS011;13500;52.514;13.462;2023-03-23T00:37:00;6.97;;;3.70;;
8654;SDS011;13500;52.514;13.462;2023-03-23T00:39:27;6.60;;;3.57;;
8654;SDS011;13500;52.514;13.462;2023-03-23T00:41:54;7.10;;;3.87;;
8654;SDS011;13500;52.514;13.462;2023-03-23T00:44:27;5.33;;;2.80;;
8654;SDS011;13500;52.514;13.462;2023-03-23T00:46:56;5.37;;;2.50;;
8654;SDS011;13500;52.514;13.462;2023-03-23T00:49:24;6.07;;;2.70;;
8654;SDS011;13500;52.514;13.462;2023-03-23T00:51:52;2.90;;;2.27;;
8654;SDS011;13500;52.514;13.462;2023-03-23T00:54:19;3.50;;;2.67;;
8654;SDS011;13500;52.514;13.462;2023-03-23T00:56:49;4.27;;;2.73;;
8654;SDS011;13500;52.514;13.462;2023-03-23T00:59:16;3.00;;;2.60;;
8654;SDS011;13500;52.514;13.462;2023-03-23T01:01:44;3.23;;;2.53;;
8654;SDS011;13500;52.514;13.462;2023-03-23T01:04:12;5.53;;;2.87;;
8654;SDS011;13500;52.514;13.462;2023-03-23T01:06:41;4.10;;;2.70;;
8654;SDS011;13500;52.514;13.462;2023-03-23T01:09:09;4.10;;;2.40;;
8654;SDS011;13500;52.514;13.462;2023-03-23T01:11:42;4.10;;;2.43;;
8654;SDS011;13500;52.514;13.462;2023-03-23T01:14:10;3.60;;;2.70;;
8654;SDS011;13500;52.514;13.462;2023-03-23T01:16:37;3.17;;;2.67;;
8654;SDS011;13500;52.514;13.462;2023-03-23T01:19:06;2.60;;;2.30;;
8654;SDS011;13500;52.514;13.462;2023-03-23T01:21:33;3.93;;;2.70;;
8654;SDS011;13500;52.514;13.462;2023-03-23T01:24:00;3.33;;;2.57;;
8654;SDS011;13500;52.514;13.462;2023-03-23T01:26:28;4.57;;;3.10;;
8654;SDS011;13500;52.514;13.462;2023-03-23T01:28:55;2.80;;;2.20;;
8654;SDS011;13500;52.514;13.462;2023-03-23T01:31:22;3.57;;;2.60;;
8654;SDS011;13500;52.514;13.462;2023-03-23T01:33:50;5.73;;;2.47;;
8654;SDS011;13500;52.514;13.462;2023-03-23T01:36:21;3.00;;;2.40;;
8654;SDS011;13500;52.514;13.462;2023-03-23T01:38:50;3.37;;;2.63;;
8654;SDS011;13500;52.514;13.462;2023-03-23T01:41:18;3.23;;;2.50;;
8654;SDS011;13500;52.514;13.462;2023-03-23T01:43:59;5.40;;;2.23;;
8654;SDS011;13500;52.514;13.462;2023-03-23T01:46:31;4.70;;;2.30;;
8654;SDS011;13500;52.514;13.462;2023-03-23T01:49:01;2.87;;;2.30;;
8654;SDS011;13500;52.514;13.462;2023-03-23T01:51:33;2.53;;;2.27;;
8654;SDS011;13500;52.514;13.462;2023-03-23T01:54:02;4.77;;;2.60;;
8654;SDS011;13500;52.514;13.462;2023-03-23T01:56:32;4.33;;;2.53;;
8654;SDS011;13500;52.514;13.462;2023-03-23T01:59:06;4.03;;;2.70;;
8654;SDS011;13500;52.514;13.462;2023-03-23T02:01:34;2.80;;;2.13;;
8654;SDS011;13500;52.514;13.462;2023-03-23T02:04:04;3.27;;;2.37;;
8654;SDS011;13500;52.514;13.462;2023-03-23T02:06:31;2.87;;;2.13;;
8654;SDS011;13500;52.514;13.462;2023-03-23T02:09:15;4.97;;;2.30;;
8654;SDS011;13500;52.514;13.462;2023-03-23T02:11:45;4.77;;;2.40;;
8654;SDS011;13500;52.514;13.462;2023-03-23T02:14:13;4.73;;;2.50;;
8654;SDS011;13500;52.514;13.462;2023-03-23T02:16:42;3.83;;;2.63;;
8654;SDS011;13500;52.514;13.462;2023-03-23T02:19:20;3.20;;;2.30;;
8654;SDS011;13500;52.514;13.462;2023-03-23T02:25:06;4.10;;;2.47;;
8654;SDS011;13500;52.514;13.462;2023-03-23T02:27:47;3.03;;;2.20;;
8654;SDS011;13500;52.514;13.462;2023-03-23T02:30:30;3.53;;;2.10;;
8654;SDS011;13500;52.514;13.462;2023-03-23T02:36:04;3.90;;;2.67;;
8654;SDS011;13500;52.514;13.462;2023-03-23T02:38:38;4.90;;;2.70;;
8654;SDS011;13500;52.514;13.462;2023-03-23T02:41:08;2.27;;;2.00;;
8654;SDS011;13500;52.514;13.462;2023-03-23T02:43:38;3.67;;;2.57;;
8654;SDS011;13500;52.514;13.462;2023-03-23T02:46:08;2.97;;;2.33;;
8654;SDS011;13500;52.514;13.462;2023-03-23T02:48:38;4.23;;;2.27;;
8654;SDS011;13500;52.514;13.462;2023-03-23T02:51:06;3.90;;;2.57;;
8654;SDS011;13500;52.514;13.462;2023-03-23T02:53:34;2.93;;;2.27;;
8654;SDS011;13500;52.514;13.462;2023-03-23T02:56:04;3.17;;;2.40;;
8654;SDS011;13500;52.514;13.462;2023-03-23T02:58:34;3.53;;;2.30;;
8654;SDS011;13500;52.514;13.462;2023-03-23T03:01:11;2.60;;;2.40;;
8654;SDS011;13500;52.514;13.462;2023-03-23T03:03:44;3.93;;;2.67;;
8654;SDS011;13500;52.514;13.462;2023-03-23T03:06:14;4.37;;;2.50;;
8654;SDS011;13500;52.514;13.462;2023-03-23T03:08:46;4.77;;;2.27;;
8654;SDS011;13500;52.514;13.462;2023-03-23T03:11:16;4.23;;;2.30;;
8654;SDS011;13500;52.514;13.462;2023-03-23T03:13:45;4.23;;;2.20;;
8654;SDS011;13500;52.514;13.462;2023-03-23T03:16:16;4.07;;;2.60;;
8654;SDS011;13500;52.514;13.462;2023-03-23T03:18:49;2.93;;;2.33;;
8654;SDS011;13500;52.514;13.462;2023-03-23T03:21:20;3.27;;;2.20;;
8654;SDS011;13500;52.514;13.462;2023-03-23T03:23:51;2.87;;;2.30;;
8654;SDS011;13500;52.514;13.462;2023-03-23T03:26:19;2.73;;;2.20;;
8654;SDS011;13500;52.514;13.462;2023-03-23T03:28:52;4.43;;;2.50;;
8654;SDS011;13500;52.514;13.462;2023-03-23T03:31:21;3.17;;;2.33;;
8654;SDS011;13500;52.514;13.462;2023-03-23T03:33:59;3.30;;;2.17;;
8654;SDS011;13500;52.514;13.462;2023-03-23T03:36:29;3.90;;;2.50;;
8654;SDS011;13500;52.514;13.462;2023-03-23T03:39:01;2.70;;;2.20;;
8654;SDS011;13500;52.514;13.462;2023-03-23T03:41:33;4.97;;;2.10;;
8654;SDS011;13500;52.514;13.462;2023-03-23T03:44:00;2.83;;;2.20;;
8654;SDS011;13500;52.514;13.462;2023-03-23T03:46:28;4.40;;;2.50;;
8654;SDS011;13500;52.514;13.462;2023-03-23T03:48:56;3.10;;;2.17;;
8654;SDS011;13500;52.514;13.462;2023-03-23T03:51:25;2.67;;;2.17;;
8654;SDS011;13500;52.514;13.462;2023-03-23T03:53:54;3.03;;;2.53;;
8654;SDS011;13500;52.514;13.462;2023-03-23T03:56:21;2.70;;;2.00;;
8654;SDS011;13500;52.514;13.462;2023-03-23T03:59:02;4.10;;;2.10;;
8654;SDS011;13500;52.514;13.462;2023-03-23T04:01:58;3.23;;;2.10;;
8654;SDS011;13500;52.514;13.462;2023-03-23T04:04:25;2.87;;;2.33;;
8654;SDS011;13500;52.514;13.462;2023-03-23T04:06:53;3.77;;;2.40;;
8654;SDS011;13500;52.514;13.462;2023-03-23T04:09:20;3.53;;;2.50;;
8654;SDS011;13500;52.514;13.462;2023-03-23T04:11:47;3.07;;;2.30;;
8654;SDS011;13500;52.514;13.462;2023-03-23T04:14:53;5.47;;;2.47;;
8654;SDS011;13500;52.514;13.462;2023-03-23T04:17:19;2.77;;;2.40;;
8654;SDS011;13500;52.514;13.462;2023-03-23T04:19:46;3.47;;;2.37;;
8654;SDS011;13500;52.514;13.462;2023-03-23T04:22:16;3.23;;;2.20;;
8654;SDS011;13500;52.514;13.462;2023-03-23T04:24:43;4.10;;;2.20;;
8654;SDS011;13500;52.514;13.462;2023-03-23T04:27:16;3.30;;;2.53;;
8654;SDS011;13500;52.514;13.462;2023-03-23T04:29:44;3.43;;;2.13;;
8654;SDS011;13500;52.514;13.462;2023-03-23T04:32:34;2.90;;;2.53;;
8654;SDS011;13500;52.514;13.462;2023-03-23T04:35:01;2.90;;;2.23;;
8654;SDS011;13500;52.514;13.462;2023-03-23T04:37:38;4.30;;;2.70;;
8654;SDS011;13500;52.514;13.462;2023-03-23T04:40:06;3.33;;;2.60;;
8654;SDS011;13500;52.514;13.462;2023-03-23T04:42:38;4.00;;;2.70;;
8654;SDS011;13500;52.514;13.462;2023-03-23T04:45:15;4.47;;;2.73;;
8654;SDS011;13500;52.514;13.462;2023-03-23T04:47:49;4.03;;;2.90;;
8654;SDS011;13500;52.514;13.462;2023-03-23T04:50:26;5.63;;;3.10;;
8654;SDS011;13500;52.514;13.462;2023-03-23T04:52:58;3.87;;;2.93;;
8654;SDS011;13500;52.514;13.462;2023-03-23T04:55:29;3.97;;;2.80;;
8654;SDS011;13500;52.514;13.462;2023-03-23T04:57:57;4.93;;;2.70;;
8654;SDS011;13500;52.514;13.462;2023-03-23T05:00:40;3.63;;;3.00;;
8654;SDS011;13500;52.514;13.462;2023-03-23T05:03:09;3.60;;;3.00;;
8654;SDS011;13500;52.514;13.462;2023-03-23T05:05:36;2.93;;;2.60;;
8654;SDS011;13500;52.514;13.462;2023-03-23T05:08:08;5.23;;;2.77;;
8654;SDS011;13500;52.514;13.462;2023-03-23T05:10:38;3.57;;;2.60;;
8654;SDS011;13500;52.514;13.462;2023-03-23T05:13:10;3.30;;;2.57;;
8654;SDS011;13500;52.514;13.462;2023-03-23T05:15:37;3.60;;;2.90;;
8654;SDS011;13500;52.514;13.462;2023-03-23T05:18:05;4.80;;;2.50;;
8654;SDS011;13500;52.514;13.462;2023-03-23T05:20:33;5.23;;;2.70;;
8654;SDS011;13500;52.514;13.462;2023-03-23T05:23:08;4.27;;;2.87;;
8654;SDS011;13500;52.514;13.462;2023-03-23T05:25:37;7.03;;;3.00;;
8654;SDS011;13500;52.514;13.462;2023-03-23T05:28:17;4.07;;;2.70;;
8654;SDS011;13500;52.514;13.462;2023-03-23T05:31:03;3.83;;;2.90;;
8654;SDS011;13500;52.514;13.462;2023-03-23T05:33:32;5.47;;;2.73;;
8654;SDS011;13500;52.514;13.462;2023-03-23T05:36:07;3.27;;;2.50;;
8654;SDS011;13500;52.514;13.462;2023-03-23T05:39:06;3.80;;;2.60;;
8654;SDS011;13500;52.514;13.462;2023-03-23T05:41:50;3.00;;;2.70;;
8654;SDS011;13500;52.514;13.462;2023-03-23T05:44:18;4.67;;;2.83;;
8654;SDS011;13500;52.514;13.462;2023-03-23T05:46:48;5.20;;;2.60;;
8654;SDS011;13500;52.514;13.462;2023-03-23T05:49:15;5.07;;;2.80;;
8654;SDS011;13500;52.514;13.462;2023-03-23T05:51:43;3.37;;;2.60;;
8654;SDS011;13500;52.514;13.462;2023-03-23T05:54:13;4.17;;;2.47;;
8654;SDS011;13500;52.514;13.462;2023-03-23T05:56:42;4.47;;;2.80;;
8654;SDS011;13500;52.514;13.462;2023-03-23T05:59:09;9.47;;;3.20;;
8654;SDS011;13500;52.514;13.462;2023-03-23T06:01:37;7.17;;;3.03;;
8654;SDS011;13500;52.514;13.462;2023-03-23T06:04:04;3.13;;;2.80;;
8654;SDS011;13500;52.514;13.462;2023-03-23T06:06:44;6.37;;;3.07;;
8654;SDS011;13500;52.514;13.462;2023-03-23T06:09:12;4.40;;;2.80;;
8654;SDS011;13500;52.514;13.462;2023-03-23T06:12:03;5.07;;;2.60;;
8654;SDS011;13500;52.514;13.462;2023-03-23T06:14:57;4.87;;;2.73;;
8654;SDS011;13500;52.514;13.462;2023-03-23T06:17:39;5.57;;;3.10;;
8654;SDS011;13500;52.514;13.462;2023-03-23T06:20:08;8.33;;;3.43;;
8654;SDS011;13500;52.514;13.462;2023-03-23T06:22:37;3.23;;;2.70;;
8654;SDS011;13500;52.514;13.462;2023-03-23T06:25:13;5.17;;;2.90;;
8654;SDS011;13500;52.514;13.462;2023-03-23T06:27:42;3.73;;;3.07;;
8654;SDS011;13500;52.514;13.462;2023-03-23T06:30:12;5.03;;;2.60;;
8654;SDS011;13500;52.514;13.462;2023-03-23T06:32:41;3.77;;;2.77;;
8654;SDS011;13500;52.514;13.462;2023-03-23T06:35:11;5.70;;;2.90;;
8654;SDS011;13500;52.514;13.462;2023-03-23T06:37:58;4.83;;;2.90;;
8654;SDS011;13500;52.514;13.462;2023-03-23T06:40:36;3.40;;;2.83;;
8654;SDS011;13500;52.514;13.462;2023-03-23T06:43:04;5.23;;;2.93;;
8654;SDS011;13500;52.514;13.462;2023-03-23T06:45:59;3.93;;;3.00;;
8654;SDS011;13500;52.514;13.462;2023-03-23T06:48:47;7.50;;;2.97;;
8654;SDS011;13500;52.514;13.462;2023-03-23T06:51:16;4.47;;;2.57;;
8654;SDS011;13500;52.514;13.462;2023-03-23T06:53:48;3.70;;;2.70;;
8654;SDS011;13500;52.514;13.462;2023-03-23T06:56:17;4.10;;;2.87;;
8654;SDS011;13500;52.514;13.462;2023-03-23T06:58:45;7.00;;;3.20;;
8654;SDS011;13500;52.514;13.462;2023-03-23T07:01:13;31.33;;;23.37;;
8654;SDS011;13500;52.514;13.462;2023-03-23T07:03:47;23.40;;;19.83;;
8654;SDS011;13500;52.514;13.462;2023-03-23T07:06:17;20.20;;;15.83;;
8654;SDS011;13500;52.514;13.462;2023-03-23T07:08:50;8.20;;;6.40;;
8654;SDS011;13500;52.514;13.462;2023-03-23T07:11:22;23.80;;;17.77;;
8654;SDS011;13500;52.514;13.462;2023-03-23T07:13:49;45.50;;;33.80;;
8654;SDS011;13500;52.514;13.462;2023-03-23T07:16:17;8.33;;;5.40;;
8654;SDS011;13500;52.514;13.462;2023-03-23T07:18:45;16.73;;;14.97;;
8654;SDS011;13500;52.514;13.462;2023-03-23T07:21:12;12.50;;;9.50;;
8654;SDS011;13500;52.514;13.462;2023-03-23T07:23:40;12.30;;;10.00;;
8654;SDS011;13500;52.514;13.462;2023-03-23T07:26:14;6.30;;;3.90;;
8654;SDS011;13500;52.514;13.462;2023-03-23T07:28:49;8.07;;;6.30;;
8654;SDS011;13500;52.514;13.462;2023-03-23T07:31:24;4.53;;;4.00;;
8654;SDS011;13500;52.514;13.462;2023-03-23T07:33:52;9.57;;;6.77;;
8654;SDS011;13500;52.514;13.462;2023-03-23T07:36:23;5.37;;;3.90;;
8654;SDS011;13500;52.514;13.462;2023-03-23T07:38:50;7.40;;;6.10;;
8654;SDS011;13500;52.514;13.462;2023-03-23T07:41:17;8.17;;;7.30;;
8654;SDS011;13500;52.514;13.462;2023-03-23T07:43:45;9.13;;;5.03;;
8654;SDS011;13500;52.514;13.462;2023-03-23T07:46:35;6.77;;;3.57;;
8654;SDS011;13500;52.514;13.462;2023-03-23T07:49:17;7.07;;;4.53;;
8654;SDS011;13500;52.514;13.462;2023-03-23T07:51:53;7.47;;;5.17;;
8654;SDS011;13500;52.514;13.462;2023-03-23T07:54:22;6.60;;;3.90;;
8654;SDS011;13500;52.514;13.462;2023-03-23T07:57:06;6.17;;;4.03;;
8654;SDS011;13500;52.514;13.462;2023-03-23T07:59:37;7.87;;;4.27;;
8654;SDS011;13500;52.514;13.462;2023-03-23T08:02:07;4.77;;;3.37;;
8654;SDS011;13500;52.514;13.462;2023-03-23T08:05:04;4.87;;;3.73;;
8654;SDS011;13500;52.514;13.462;2023-03-23T08:07:55;4.47;;;3.53;;
8654;SDS011;13500;52.514;13.462;2023-03-23T08:10:40;4.00;;;3.57;;
8654;SDS011;13500;52.514;13.462;2023-03-23T08:13:26;10.37;;;3.43;;
8654;SDS011;13500;52.514;13.462;2023-03-23T08:16:26;7.17;;;3.50;;
8654;SDS011;13500;52.514;13.462;2023-03-23T08:19:23;7.30;;;3.80;;
8654;SDS011;13500;52.514;13.462;2023-03-23T08:22:20;7.43;;;3.67;;
8654;SDS011;13500;52.514;13.462;2023-03-23T08:25:16;4.50;;;3.10;;
8654;SDS011;13500;52.514;13.462;2023-03-23T08:27:59;6.17;;;3.50;;
8654;SDS011;13500;52.514;13.462;2023-03-23T08:30:41;5.67;;;3.60;;
8654;SDS011;13500;52.514;13.462;2023-03-23T08:33:29;4.33;;;3.20;;
8654;SDS011;13500;52.514;13.462;2023-03-23T08:36:21;4.90;;;3.70;;
8654;SDS011;13500;52.514;13.462;2023-03-23T08:39:11;4.80;;;3.33;;
8654;SDS011;13500;52.514;13.462;2023-03-23T08:41:53;5.23;;;3.47;;
8654;SDS011;13500;52.514;13.462;2023-03-23T08:44:40;4.70;;;3.00;;
8654;SDS011;13500;52.514;13.462;2023-03-23T08:47:15;5.00;;;3.23;;
8654;SDS011;13500;52.514;13.462;2023-03-23T08:50:01;6.10;;;3.13;;
8654;SDS011;13500;52.514;13.462;2023-03-23T08:52:48;5.10;;;3.07;;
8654;SDS011;13500;52.514;13.462;2023-03-23T08:55:34;5.70;;;3.00;;
8654;SDS011;13500;52.514;13.462;2023-03-23T08:58:21;5.47;;;2.90;;
8654;SDS011;13500;52.514;13.462;2023-03-23T09:01:24;7.83;;;2.93;;
8654;SDS011;13500;52.514;13.462;2023-03-23T09:04:00;4.93;;;2.73;;
8654;SDS011;13500;52.514;13.462;2023-03-23T09:06:40;3.10;;;2.50;;
8654;SDS011;13500;52.514;13.462;2023-03-23T09:09:09;3.33;;;2.77;;
8654;SDS011;13500;52.514;13.462;2023-03-23T09:11:36;3.90;;;2.83;;
8654;SDS011;13500;52.514;13.462;2023-03-23T09:14:05;4.87;;;3.03;;
8654;SDS011;13500;52.514;13.462;2023-03-23T09:16:32;3.43;;;2.80;;
8654;SDS011;13500;52.514;13.462;2023-03-23T09:19:00;2.53;;;2.00;;
8654;SDS011;13500;52.514;13.462;2023-03-23T09:21:27;5.53;;;2.80;;
8654;SDS011;13500;52.514;13.462;2023-03-23T09:23:55;3.33;;;2.70;;
8654;SDS011;13500;52.514;13.462;2023-03-23T09:26:25;3.13;;;2.40;;
8654;SDS011;13500;52.514;13.462;2023-03-23T09:28:52;3.43;;;2.43;;
8654;SDS011;13500;52.514;13.462;2023-03-23T09:31:19;3.50;;;2.57;;
8654;SDS011;13500;52.514;13.462;2023-03-23T09:33:47;2.73;;;2.47;;
8654;SDS011;13500;52.514;13.462;2023-03-23T09:36:17;4.33;;;2.90;;
8654;SDS011;13500;52.514;13.462;2023-03-23T09:38:46;2.70;;;2.30;;
8654;SDS011;13500;52.514;13.462;2023-03-23T09:41:18;2.30;;;1.93;;
8654;SDS011;13500;52.514;13.462;2023-03-23T09:43:59;2.83;;;1.90;;
8654;SDS011;13500;52.514;13.462;2023-03-23T09:46:43;3.00;;;2.03;;
8654;SDS011;13500;52.514;13.462;2023-03-23T09:49:17;2.73;;;2.17;;
8654;SDS011;13500;52.514;13.462;2023-03-23T09:51:46;2.63;;;2.00;;
8654;SDS011;13500;52.514;13.462;2023-03-23T09:54:18;2.87;;;1.90;;
8654;SDS011;13500;52.514;13.462;2023-03-23T09:56:48;2.70;;;2.20;;
8654;SDS011;13500;52.514;13.462;2023-03-23T09:59:18;3.40;;;1.93;;
8654;SDS011;13500;52.514;13.462;2023-03-23T10:01:47;3.43;;;2.13;;
8654;SDS011;13500;52.514;13.462;2023-03-23T10:04:19;3.33;;;2.20;;
8654;SDS011;13500;52.514;13.462;2023-03-23T10:06:51;2.20;;;1.93;;
8654;SDS011;13500;52.514;13.462;2023-03-23T10:09:18;2.80;;;1.90;;
8654;SDS011;13500;52.514;13.462;2023-03-23T10:11:50;3.57;;;2.00;;
8654;SDS011;13500;52.514;13.462;2023-03-23T10:14:28;3.23;;;2.10;;
8654;SDS011;13500;52.514;13.462;2023-03-23T10:17:03;2.73;;;2.30;;
8654;SDS011;13500;52.514;13.462;2023-03-23T10:19:37;3.23;;;2.10;;
8654;SDS011;13500;52.514;13.462;2023-03-23T10:22:09;3.67;;;2.00;;
8654;SDS011;13500;52.514;13.462;2023-03-23T10:24:39;5.63;;;2.00;;
8654;SDS011;13500;52.514;13.462;2023-03-23T10:27:16;3.87;;;2.10;;
8654;SDS011;13500;52.514;13.462;2023-03-23T10:29:47;3.30;;;1.90;;
8654;SDS011;13500;52.514;13.462;2023-03-23T10:32:18;2.23;;;1.90;;
8654;SDS011;13500;52.514;13.462;2023-03-23T10:34:47;2.27;;;1.90;;
8654;SDS011;13500;52.514;13.462;2023-03-23T10:37:18;4.40;;;1.90;;
8654;SDS011;13500;52.514;13.462;2023-03-23T10:39:48;2.00;;;1.80;;
8654;SDS011;13500;52.514;13.462;2023-03-23T10:42:26;3.67;;;1.80;;
8654;SDS011;13500;52.514;13.462;2023-03-23T10:44:54;4.80;;;2.07;;
8654;SDS011;13500;52.514;13.462;2023-03-23T10:47:23;3.63;;;2.20;;
8654;SDS011;13500;52.514;13.462;2023-03-23T10:49:51;4.67;;;1.90;;
8654;SDS011;13500;52.514;13.462;2023-03-23T10:52:24;4.03;;;1.93;;
8654;SDS011;13500;52.514;13.462;2023-03-23T10:54:55;2.90;;;2.00;;
8654;SDS011;13500;52.514;13.462;2023-03-23T10:57:26;2.83;;;2.03;;
8654;SDS011;13500;52.514;13.462;2023-03-23T10:59:58;2.10;;;1.80;;
8654;SDS011;13500;52.514;13.462;2023-03-23T11:02:31;2.73;;;2.20;;
8654;SDS011;13500;52.514;13.462;2023-03-23T11:05:00;2.23;;;1.70;;
8654;SDS011;13500;52.514;13.462;2023-03-23T11:07:31;2.33;;;1.73;;
8654;SDS011;13500;52.514;13.462;2023-03-23T11:10:05;2.83;;;1.90;;
8654;SDS011;13500;52.514;13.462;2023-03-23T11:12:36;3.73;;;1.90;;
8654;SDS011;13500;52.514;13.462;2023-03-23T11:15:04;2.97;;;1.90;;
8654;SDS011;13500;52.514;13.462;2023-03-23T11:17:42;4.73;;;2.20;;
8654;SDS011;13500;52.514;13.462;2023-03-23T11:20:09;5.57;;;2.37;;
8654;SDS011;13500;52.514;13.462;2023-03-23T11:22:37;8.77;;;2.20;;
8654;SDS011;13500;52.514;13.462;2023-03-23T11:25:05;3.50;;;1.87;;
8654;SDS011;13500;52.514;13.462;2023-03-23T11:27:32;6.30;;;2.10;;
8654;SDS011;13500;52.514;13.462;2023-03-23T11:30:01;3.80;;;2.23;;
8654;SDS011;13500;52.514;13.462;2023-03-23T11:32:35;2.37;;;1.90;;
8654;SDS011;13500;52.514;13.462;2023-03-23T11:35:03;4.67;;;2.00;;
8654;SDS011;13500;52.514;13.462;2023-03-23T11:37:34;3.43;;;1.63;;
8654;SDS011;13500;52.514;13.462;2023-03-23T11:40:10;3.80;;;1.90;;
8654;SDS011;13500;52.514;13.462;2023-03-23T11:42:42;3.90;;;1.90;;
8654;SDS011;13500;52.514;13.462;2023-03-23T11:45:16;4.33;;;2.10;;
8654;SDS011;13500;52.514;13.462;2023-03-23T11:47:49;2.73;;;2.10;;
8654;SDS011;13500;52.514;13.462;2023-03-23T11:50:22;1.73;;;1.63;;
8654;SDS011;13500;52.514;13.462;2023-03-23T11:52:54;3.03;;;1.80;;
8654;SDS011;13500;52.514;13.462;2023-03-23T11:55:31;2.63;;;1.70;;
8654;SDS011;13500;52.514;13.462;2023-03-23T11:58:00;2.20;;;1.70;;
8654;SDS011;13500;52.514;13.462;2023-03-23T12:00:31;4.37;;;2.10;;
8654;SDS011;13500;52.514;13.462;2023-03-23T12:02:59;3.57;;;2.33;;
8654;SDS011;13500;52.514;13.462;2023-03-23T12:05:47;3.37;;;1.90;;
8654;SDS011;13500;52.514;13.462;2023-03-23T12:08:31;3.10;;;1.87;;
8654;SDS011;13500;52.514;13.462;2023-03-23T12:11:07;4.50;;;2.00;;
8654;SDS011;13500;52.514;13.462;2023-03-23T12:13:45;3.57;;;1.77;;
8654;SDS011;13500;52.514;13.462;2023-03-23T12:16:29;2.40;;;1.80;;
8654;SDS011;13500;52.514;13.462;2023-03-23T12:19:06;2.20;;;1.70;;
8654;SDS011;13500;52.514;13.462;2023-03-23T12:21:43;2.60;;;2.00;;
8654;SDS011;13500;52.514;13.462;2023-03-23T12:24:18;5.87;;;2.20;;
8654;SDS011;13500;52.514;13.462;2023-03-23T12:26:52;3.47;;;2.07;;
8654;SDS011;13500;52.514;13.462;2023-03-23T12:29:35;2.10;;;1.70;;
8654;SDS011;13500;52.514;13.462;2023-03-23T12:32:26;4.07;;;2.17;;
8654;SDS011;13500;52.514;13.462;2023-03-23T12:35:01;1.87;;;1.67;;
8654;SDS011;13500;52.514;13.462;2023-03-23T12:37:40;4.67;;;2.20;;
8654;SDS011;13500;52.514;13.462;2023-03-23T12:40:25;2.83;;;2.00;;
8654;SDS011;13500;52.514;13.462;2023-03-23T12:43:08;2.70;;;2.13;;
8654;SDS011;13500;52.514;13.462;2023-03-23T12:45:47;3.00;;;2.10;;
8654;SDS011;13500;52.514;13.462;2023-03-23T12:48:23;4.50;;;2.07;;
8654;SDS011;13500;52.514;13.462;2023-03-23T12:51:02;2.10;;;1.60;;
8654;SDS011;13500;52.514;13.462;2023-03-23T12:53:36;1.70;;;1.60;;
8654;SDS011;13500;52.514;13.462;2023-03-23T12:56:10;5.37;;;2.03;;
8654;SDS011;13500;52.514;13.462;2023-03-23T12:58:40;3.17;;;2.00;;
8654;SDS011;13500;52.514;13.462;2023-03-23T13:01:10;2.43;;;2.20;;
8654;SDS011;13500;52.514;13.462;2023-03-23T13:03:42;3.07;;;1.90;;
8654;SDS011;13500;52.514;13.462;2023-03-23T13:06:26;2.70;;;1.80;;
8654;SDS011;13500;52.514;13.462;2023-03-23T13:08:57;3.60;;;1.90;;
8654;SDS011;13500;52.514;13.462;2023-03-23T13:11:28;3.00;;;1.90;;
8654;SDS011;13500;52.514;13.462;2023-03-23T13:13:59;2.80;;;2.07;;
8654;SDS011;13500;52.514;13.462;2023-03-23T13:16:34;4.27;;;2.10;;
8654;SDS011;13500;52.514;13.462;2023-03-23T13:19:08;3.53;;;2.27;;
8654;SDS011;13500;52.514;13.462;2023-03-23T13:21:41;3.27;;;2.03;;
8654;SDS011;13500;52.514;13.462;2023-03-23T13:24:12;3.50;;;1.63;;
8654;SDS011;13500;52.514;13.462;2023-03-23T13:26:41;3.43;;;2.13;;
8654;SDS011;13500;52.514;13.462;2023-03-23T13:29:11;3.00;;;1.83;;
8654;SDS011;13500;52.514;13.462;2023-03-23T13:31:41;3.20;;;2.07;;
8654;SDS011;13500;52.514;13.462;2023-03-23T13:34:15;2.20;;;1.80;;
8654;SDS011;13500;52.514;13.462;2023-03-23T13:36:44;2.93;;;1.80;;
8654;SDS011;13500;52.514;13.462;2023-03-23T13:39:18;8.37;;;2.37;;
8654;SDS011;13500;52.514;13.462;2023-03-23T13:41:58;4.57;;;2.30;;
8654;SDS011;13500;52.514;13.462;2023-03-23T13:44:38;5.70;;;2.30;;
8654;SDS011;13500;52.514;13.462;2023-03-23T13:47:15;5.87;;;2.03;;
8654;SDS011;13500;52.514;13.462;2023-03-23T13:49:49;3.90;;;2.13;;
8654;SDS011;13500;52.514;13.462;2023-03-23T13:52:21;8.50;;;2.93;;
8654;SDS011;13500;52.514;13.462;2023-03-23T13:54:51;8.93;;;2.20;;
8654;SDS011;13500;52.514;13.462;2023-03-23T13:57:20;4.60;;;2.10;;
8654;SDS011;13500;52.514;13.462;2023-03-23T13:59:56;4.33;;;1.77;;
8654;SDS011;13500;52.514;13.462;2023-03-23T14:02:29;4.27;;;2.03;;
8654;SDS011;13500;52.514;13.462;2023-03-23T14:05:09;4.77;;;2.07;;
8654;SDS011;13500;52.514;13.462;2023-03-23T14:07:57;2.83;;;1.90;;
8654;SDS011;13500;52.514;13.462;2023-03-23T14:10:31;5.07;;;1.83;;
8654;SDS011;13500;52.514;13.462;2023-03-23T14:13:00;3.13;;;2.10;;
8654;SDS011;13500;52.514;13.462;2023-03-23T14:15:28;3.80;;;1.87;;
8654;SDS011;13500;52.514;13.462;2023-03-23T14:17:55;5.13;;;2.00;;
8654;SDS011;13500;52.514;13.462;2023-03-23T14:20:25;4.40;;;1.93;;
8654;SDS011;13500;52.514;13.462;2023-03-23T14:22:54;3.10;;;1.73;;
8654;SDS011;13500;52.514;13.462;2023-03-23T14:25:22;3.77;;;1.80;;
8654;SDS011;13500;52.514;13.462;2023-03-23T14:27:53;4.27;;;2.07;;
8654;SDS011;13500;52.514;13.462;2023-03-23T14:30:20;2.77;;;1.53;;
8654;SDS011;13500;52.514;13.462;2023-03-23T14:32:50;2.30;;;1.57;;
8654;SDS011;13500;52.514;13.462;2023-03-23T14:35:19;2.47;;;1.70;;
8654;SDS011;13500;52.514;13.462;2023-03-23T14:37:51;3.70;;;1.97;;
8654;SDS011;13500;52.514;13.462;2023-03-23T14:40:18;4.27;;;1.93;;
8654;SDS011;13500;52.514;13.462;2023-03-23T14:42:45;4.67;;;2.00;;
8654;SDS011;13500;52.514;13.462;2023-03-23T14:45:12;4.13;;;1.70;;
8654;SDS011;13500;52.514;13.462;2023-03-23T14:47:43;4.57;;;2.13;;
8654;SDS011;13500;52.514;13.462;2023-03-23T14:50:26;3.40;;;1.87;;
8654;SDS011;13500;52.514;13.462;2023-03-23T14:53:02;3.67;;;1.90;;
8654;SDS011;13500;52.514;13.462;2023-03-23T14:55:30;4.23;;;2.10;;
8654;SDS011;13500;52.514;13.462;2023-03-23T14:58:05;3.67;;;1.80;;
8654;SDS011;13500;52.514;13.462;2023-03-23T15:00:34;2.63;;;1.90;;
8654;SDS011;13500;52.514;13.462;2023-03-23T15:03:02;3.17;;;2.00;;
8654;SDS011;13500;52.514;13.462;2023-03-23T15:05:31;2.93;;;1.97;;
8654;SDS011;13500;52.514;13.462;2023-03-23T15:08:03;3.50;;;2.10;;
8654;SDS011;13500;52.514;13.462;2023-03-23T15:10:32;2.90;;;2.10;;
8654;SDS011;13500;52.514;13.462;2023-03-23T15:12:59;4.10;;;2.10;;
8654;SDS011;13500;52.514;13.462;2023-03-23T15:15:27;4.70;;;2.00;;
8654;SDS011;13500;52.514;13.462;2023-03-23T15:17:56;3.83;;;2.10;;
8654;SDS011;13500;52.514;13.462;2023-03-23T15:20:24;3.30;;;2.27;;
8654;SDS011;13500;52.514;13.462;2023-03-23T15:22:52;4.10;;;2.20;;
8654;SDS011;13500;52.514;13.462;2023-03-23T15:25:21;2.43;;;1.90;;
8654;SDS011;13500;52.514;13.462;2023-03-23T15:27:50;3.13;;;2.00;;
8654;SDS011;13500;52.514;13.462;2023-03-23T15:30:28;4.03;;;2.23;;